Time;durP1;ratioP1;P1;durP2;ratioP2;P2;SDS_P1;SDS_P2;PMS_P1;PMS_P2;Temp;Humidity;BMP_temperature;BMP_pressure;BME280_temperature;BME280_humidity;BME280_pressure;Samples;Min_cycle;Max_cycle;Signal;HPM_P1;HPM_P2
2023/07/31 00:01:25;;;;;;;;;1.00;1.00;;;;;22.19;62.12;101165.91;5004091;28;45286;-66
2023/07/31 00:03:51;;;;;;;;;3.75;2.75;;;;;22.16;61.38;101162.56;4987327;28;45573;-66
2023/07/31 00:06:19;;;;;;;;;2.00;2.00;;;;;22.18;61.41;101166.88;5000379;28;45361;-66
2023/07/31 00:08:44;;;;;;;;;2.75;2.75;;;;;22.04;61.81;101134.44;4998777;28;47059;-66
2023/07/31 00:11:09;;;;;;;;;3.50;2.25;;;;;22.13;61.57;101141.88;5000391;28;45631;-67
2023/07/31 00:13:35;;;;;;;;;1.50;1.00;;;;;22.13;62.34;101146.47;5000446;28;46790;-66
2023/07/31 00:16:00;;;;;;;;;2.00;2.00;;;;;22.21;61.72;101165.78;5000314;28;45479;-67
2023/07/31 00:18:25;;;;;;;;;2.25;2.25;;;;;22.23;61.97;101171.13;4982243;28;46572;-67
2023/07/31 00:20:51;;;;;;;;;3.25;2.75;;;;;22.17;62.21;101154.28;5000244;28;45333;-66
2023/07/31 00:23:16;;;;;;;;;2.25;2.25;;;;;22.16;61.86;101157.13;5000077;28;45483;-66
2023/07/31 00:25:42;;;;;;;;;3.00;3.00;;;;;22.18;62.13;101153.28;5000264;28;45634;-67
2023/07/31 00:28:07;;;;;;;;;2.50;2.00;;;;;22.12;62.16;101137.47;4983425;28;47081;-66
2023/07/31 00:30:33;;;;;;;;;2.00;2.00;;;;;22.19;61.85;101155.03;5012116;28;45292;-67
2023/07/31 00:32:58;;;;;;;;;3.75;1.25;;;;;22.07;61.83;101120.63;4999951;28;45392;-66
2023/07/31 00:35:23;;;;;;;;;2.25;2.25;;;;;22.06;62.53;101126.16;5000019;28;45243;-66
2023/07/31 00:37:49;;;;;;;;;2.25;2.25;;;;;22.14;62.69;101123.75;4999690;28;46367;-66
2023/07/31 00:40:14;;;;;;;;;3.00;2.00;;;;;22.16;61.96;101138.09;4999977;28;45386;-66
2023/07/31 00:42:39;;;;;;;;;4.00;2.25;;;;;22.02;62.56;101109.22;5000040;28;45324;-66
2023/07/31 00:45:05;;;;;;;;;2.25;2.25;;;;;22.14;62.43;101130.03;4999757;28;45313;-66
2023/07/31 00:47:31;;;;;;;;;3.75;2.50;;;;;21.98;62.37;101099.56;4999425;28;45625;-67
2023/07/31 00:49:57;;;;;;;;;3.00;2.00;;;;;21.99;62.48;101112.19;4981981;28;45398;-67
2023/07/31 00:52:22;;;;;;;;;2.00;2.00;;;;;22.09;62.22;101137.69;4981955;28;45597;-67
2023/07/31 00:54:49;;;;;;;;;4.50;2.00;;;;;22.07;62.58;101127.88;4982012;28;45523;-67
2023/07/31 00:57:15;;;;;;;;;2.75;2.75;;;;;22.12;62.55;101140.19;4981804;28;47553;-67
2023/07/31 00:59:40;;;;;;;;;3.25;2.00;;;;;22.12;62.42;101136.56;4998306;28;45380;-67
2023/07/31 01:02:06;;;;;;;;;2.00;2.00;;;;;22.09;62.59;101125.94;4989321;28;45294;-67
2023/07/31 01:04:32;;;;;;;;;1.00;1.00;;;;;21.90;62.35;101091.09;4999449;28;45508;-67
2023/07/31 01:07:18;;;;;;;;;2.50;2.00;;;;;22.06;62.53;101115.31;4993058;28;45560;-66
2023/07/31 01:09:46;;;;;;;;;0.75;0.75;;;;;22.10;62.63;101124.94;4998781;28;45854;-66
2023/07/31 01:12:16;;;;;;;;;4.00;2.00;;;;;22.04;62.34;101107.25;4981363;28;45361;-66
2023/07/31 01:14:51;;;;;;;;;1.00;1.00;;;;;22.08;62.56;101119.63;4999563;28;45321;-67
2023/07/31 01:17:16;;;;;;;;;3.00;3.00;;;;;22.07;62.82;101108.84;4981460;28;46793;-66
2023/07/31 01:19:42;;;;;;;;;0.75;0.75;;;;;22.02;62.59;101104.66;4999140;28;52270;-67
2023/07/31 01:22:27;;;;;;;;;3.00;2.00;;;;;22.02;62.35;101092.91;4999325;28;45369;-66
2023/07/31 01:24:58;;;;;;;;;2.25;2.25;;;;;22.00;62.58;101087.59;4981592;28;45323;-67
2023/07/31 01:27:30;;;;;;;;;4.25;2.50;;;;;21.81;62.82;101055.47;4999289;28;46147;-66
2023/07/31 01:30:14;;;;;;;;;2.75;2.00;;;;;21.99;62.80;101079.56;4994520;28;45555;-67
2023/07/31 01:32:41;;;;;;;;;1.00;1.00;;;;;21.95;62.41;101072.59;4999338;28;45385;-67
2023/07/31 01:35:08;;;;;;;;;2.75;2.75;;;;;21.75;62.94;101046.91;4999006;28;45262;-67
2023/07/31 01:37:33;;;;;;;;;2.00;2.00;;;;;21.85;62.23;101069.69;4997634;28;47216;-66
2023/07/31 01:39:58;;;;;;;;;2.00;1.00;;;;;21.88;63.04;101080.34;4981274;28;45469;-67
2023/07/31 01:42:24;;;;;;;;;3.25;3.25;;;;;21.69;62.70;101047.41;4998936;28;50738;-66
2023/07/31 01:44:49;;;;;;;;;0.75;0.75;;;;;21.84;62.47;101085.16;4998924;28;45283;-67
2023/07/31 01:47:14;;;;;;;;;1.25;1.00;;;;;21.89;62.64;101101.13;4997449;28;47219;-67
2023/07/31 01:49:40;;;;;;;;;2.00;2.00;;;;;21.83;62.90;101080.72;4981135;28;45421;-66
2023/07/31 01:52:06;;;;;;;;;0.50;0.50;;;;;21.76;62.63;101065.81;4997588;28;45445;-66
2023/07/31 01:54:31;;;;;;;;;1.50;1.50;;;;;21.69;62.54;101053.69;4998909;28;45413;-66
2023/07/31 01:56:56;;;;;;;;;2.00;2.00;;;;;21.82;62.09;101075.38;4998878;28;45532;-66
2023/07/31 01:59:21;;;;;;;;;2.00;2.00;;;;;21.58;62.79;101034.59;4998460;28;52580;-66
2023/07/31 02:01:47;;;;;;;;;2.00;2.00;;;;;21.65;62.19;101053.06;5004016;28;45428;-67
2023/07/31 02:04:12;;;;;;;;;2.50;2.50;;;;;21.80;62.29;101094.53;5000272;28;45752;-66
2023/07/31 02:06:38;;;;;;;;;3.00;1.75;;;;;21.79;62.76;101098.22;4998570;28;45310;-66
2023/07/31 02:09:03;;;;;;;;;3.75;3.75;;;;;21.70;62.24;101077.16;4998689;28;45435;-67
2023/07/31 02:11:29;;;;;;;;;1.00;1.00;;;;;21.66;62.08;101075.66;4998631;28;46377;-67
2023/07/31 02:13:54;;;;;;;;;2.00;2.00;;;;;21.51;62.02;101064.06;4980888;28;45333;-67
2023/07/31 02:16:19;;;;;;;;;3.00;2.00;;;;;21.49;62.46;101054.31;4996615;28;46746;-67
2023/07/31 02:18:45;;;;;;;;;1.50;1.50;;;;;21.53;62.57;101056.66;4997206;28;45251;-67
2023/07/31 02:21:10;;;;;;;;;3.50;2.50;;;;;21.63;62.44;101065.91;4998939;28;45317;-66
2023/07/31 02:23:35;;;;;;;;;3.00;1.50;;;;;21.57;62.60;101057.34;5001813;28;45294;-67
2023/07/31 02:26:01;;;;;;;;;2.25;2.25;;;;;21.51;62.59;101036.91;5002064;28;45361;-67
2023/07/31 02:28:26;;;;;;;;;1.75;1.00;;;;;21.57;62.71;101050.03;5004381;28;45349;-66
2023/07/31 02:30:52;;;;;;;;;2.00;2.00;;;;;21.62;62.54;101061.44;5011343;28;45399;-66
2023/07/31 02:33:17;;;;;;;;;2.00;2.00;;;;;21.59;62.85;101056.22;5001811;28;45318;-66
2023/07/31 02:35:43;;;;;;;;;1.25;1.25;;;;;21.58;62.68;101049.03;4991209;28;47240;-66
2023/07/31 02:38:08;;;;;;;;;2.00;2.00;;;;;21.58;62.58;101046.31;5004607;28;45546;-67
2023/07/31 02:40:33;;;;;;;;;4.00;2.00;;;;;21.45;62.77;101021.91;5001966;28;45373;-66
2023/07/31 02:42:59;;;;;;;;;3.00;1.00;;;;;21.41;62.72;101012.22;5001696;28;45392;-66
2023/07/31 02:45:24;;;;;;;;;2.75;2.50;;;;;21.42;62.98;101000.41;4983613;28;46639;-67
2023/07/31 02:47:49;;;;;;;;;1.00;1.00;;;;;21.45;62.65;101010.16;5001438;28;45561;-66
2023/07/31 02:50:15;;;;;;;;;2.00;1.00;;;;;21.44;63.02;101011.16;5001682;28;46509;-67
2023/07/31 02:52:40;;;;;;;;;1.00;1.00;;;;;21.51;62.75;101028.75;4983562;28;46117;-67
2023/07/31 02:55:06;;;;;;;;;1.00;1.00;;;;;21.42;62.84;101018.56;4983844;28;47036;-67
2023/07/31 02:57:31;;;;;;;;;3.00;1.50;;;;;21.48;62.09;101017.25;4983848;28;45379;-66
2023/07/31 02:59:57;;;;;;;;;1.00;1.00;;;;;21.44;62.46;101006.59;4983989;28;45396;-66
2023/07/31 03:02:22;;;;;;;;;2.25;1.25;;;;;21.52;61.80;101026.91;5009699;28;45519;-67
2023/07/31 03:04:47;;;;;;;;;1.50;1.00;;;;;21.51;61.76;101020.59;4999790;28;47575;-66
2023/07/31 03:07:13;;;;;;;;;1.00;1.00;;;;;21.34;62.41;100994.66;5001130;28;45243;-66
2023/07/31 03:09:38;;;;;;;;;2.50;2.00;;;;;21.28;62.58;100978.81;5001584;28;45334;-66
2023/07/31 03:12:04;;;;;;;;;2.00;2.00;;;;;21.45;62.44;101010.16;5001236;28;45423;-66
2023/07/31 03:14:29;;;;;;;;;1.75;1.25;;;;;21.37;62.74;101010.75;4999997;28;47141;-67
2023/07/31 03:16:54;;;;;;;;;1.00;1.00;;;;;21.30;62.58;100998.59;4995483;28;45296;-66
2023/07/31 03:19:20;;;;;;;;;1.00;1.00;;;;;21.24;61.95;101008.06;4983693;28;45402;-67
2023/07/31 03:21:45;;;;;;;;;2.25;2.25;;;;;21.18;62.37;101002.19;4999821;28;45366;-67
2023/07/31 03:24:12;;;;;;;;;1.50;1.50;;;;;21.14;62.04;100998.84;5001064;28;45574;-66
2023/07/31 03:26:38;;;;;;;;;2.00;2.00;;;;;21.26;62.50;101013.38;5001098;28;45267;-67
2023/07/31 03:29:03;;;;;;;;;0.00;0.00;;;;;21.16;62.54;100993.31;5010132;28;45459;-67
2023/07/31 03:31:28;;;;;;;;;2.25;1.75;;;;;21.16;62.61;100996.88;5019588;28;45446;-66
2023/07/31 03:33:54;;;;;;;;;1.50;1.50;;;;;21.11;62.58;100985.50;5019639;28;45474;-67
2023/07/31 03:36:19;;;;;;;;;2.00;2.00;;;;;21.33;62.68;101016.50;4990492;28;45474;-66
2023/07/31 03:38:46;;;;;;;;;2.00;2.00;;;;;21.32;62.29;101007.50;4999864;28;45568;-66
2023/07/31 03:41:11;;;;;;;;;1.75;1.00;;;;;21.25;62.35;101001.66;5000874;28;45401;-66
2023/07/31 03:43:36;;;;;;;;;2.75;1.00;;;;;21.22;62.06;100992.88;4982922;28;48320;-66
2023/07/31 03:46:02;;;;;;;;;2.50;1.00;;;;;21.09;62.48;100982.88;5000827;28;45313;-66
2023/07/31 03:48:27;;;;;;;;;1.00;1.00;;;;;21.24;62.30;101012.63;5000722;28;45455;-66
2023/07/31 03:50:53;;;;;;;;;0.25;0.25;;;;;21.26;62.04;101013.38;5000547;28;45251;-66
2023/07/31 03:53:18;;;;;;;;;0.50;0.50;;;;;21.21;62.38;101004.69;5000633;28;45341;-67
2023/07/31 03:55:44;;;;;;;;;1.00;1.00;;;;;21.28;62.27;101016.81;5000592;28;45431;-66
2023/07/31 03:58:09;;;;;;;;;1.00;1.00;;;;;21.19;62.23;100987.66;5000928;28;45342;-67
2023/07/31 04:00:34;;;;;;;;;1.25;1.25;;;;;21.27;62.16;100993.41;5000551;28;45288;-67
2023/07/31 04:03:00;;;;;;;;;0.50;0.50;;;;;21.10;61.95;100967.50;4998828;28;47194;-66
2023/07/31 04:05:25;;;;;;;;;3.50;1.50;;;;;21.15;61.78;100984.31;5002447;28;45238;-67
2023/07/31 04:07:50;;;;;;;;;1.50;0.75;;;;;21.13;62.34;100982.66;5020308;28;45864;-67
2023/07/31 04:10:16;;;;;;;;;1.00;1.00;;;;;20.98;62.42;100961.13;5002358;28;45602;-67
2023/07/31 04:12:41;;;;;;;;;1.00;1.00;;;;;20.90;61.76;100958.09;5020210;28;45301;-67
2023/07/31 04:15:07;;;;;;;;;1.25;1.25;;;;;20.87;61.74;100955.59;5020045;28;45299;-66
2023/07/31 04:17:32;;;;;;;;;1.00;1.00;;;;;20.97;61.63;100982.94;5020355;28;45290;-67
2023/07/31 04:19:57;;;;;;;;;4.25;1.75;;;;;20.90;61.58;100980.66;5002181;28;45572;-67
2023/07/31 04:22:23;;;;;;;;;1.00;1.00;;;;;21.02;62.02;101010.59;5019948;28;46379;-67
2023/07/31 04:24:48;;;;;;;;;1.50;1.50;;;;;20.90;61.99;100986.09;5019854;28;45360;-66
2023/07/31 04:27:13;;;;;;;;;2.50;2.00;;;;;20.95;62.27;100988.47;5020036;28;45411;-67
2023/07/31 04:29:39;;;;;;;;;1.25;1.25;;;;;20.99;61.93;100992.69;5019083;28;45419;-67
2023/07/31 04:32:05;;;;;;;;;3.00;1.00;;;;;21.05;62.13;101004.97;5011211;28;47139;-66
2023/07/31 04:34:30;;;;;;;;;1.00;0.00;;;;;20.89;61.91;100981.63;4999970;28;45389;-66
2023/07/31 04:36:56;;;;;;;;;2.25;2.25;;;;;20.92;61.39;100985.97;4999860;28;45410;-66
2023/07/31 04:39:21;;;;;;;;;4.25;2.75;;;;;20.99;61.58;100994.53;5000030;28;45579;-67
2023/07/31 04:41:46;;;;;;;;;2.00;2.00;;;;;20.90;61.69;100991.50;5000036;28;46203;-67
2023/07/31 04:44:12;;;;;;;;;2.25;1.00;;;;;20.75;61.48;100967.31;4981688;28;45523;-66
2023/07/31 04:46:37;;;;;;;;;1.00;1.00;;;;;20.80;61.49;100970.56;4982459;28;45392;-66
2023/07/31 04:49:03;;;;;;;;;2.00;2.00;;;;;20.75;61.65;100964.59;4999557;28;45378;-67
2023/07/31 04:51:28;;;;;;;;;1.00;1.00;;;;;20.76;61.90;100971.78;4998154;28;47914;-67
2023/07/31 04:53:53;;;;;;;;;1.75;1.75;;;;;20.82;61.66;100979.47;4982041;28;45504;-67
2023/07/31 04:56:19;;;;;;;;;2.00;0.00;;;;;20.97;61.67;101007.34;4999943;28;45314;-67
2023/07/31 04:58:44;;;;;;;;;2.75;2.50;;;;;20.80;61.30;100975.97;4999801;28;45317;-67
2023/07/31 05:01:09;;;;;;;;;1.00;1.00;;;;;20.86;61.73;100989.13;5001031;28;45530;-66
2023/07/31 05:03:35;;;;;;;;;3.00;3.00;;;;;20.80;61.78;100976.88;5005883;28;45476;-67
2023/07/31 05:06:00;;;;;;;;;2.75;1.75;;;;;20.87;61.47;100989.00;4999474;28;45310;-67
2023/07/31 05:08:25;;;;;;;;;3.00;1.25;;;;;20.88;61.68;100992.59;4999562;28;45520;-66
2023/07/31 05:10:51;;;;;;;;;1.75;1.75;;;;;20.97;61.91;101004.66;4998212;28;47369;-66
2023/07/31 05:13:16;;;;;;;;;3.25;2.00;;;;;20.75;61.68;100970.91;4999479;28;45381;-67
2023/07/31 05:15:41;;;;;;;;;5.00;4.00;;;;;20.69;62.21;100968.63;4999621;28;45325;-67
2023/07/31 05:18:07;;;;;;;;;3.25;3.25;;;;;20.85;62.37;100996.41;4999414;28;45502;-67
2023/07/31 05:20:32;;;;;;;;;4.50;4.00;;;;;20.87;62.47;100999.88;4999306;28;46177;-67
2023/07/31 05:22:58;;;;;;;;;2.50;2.50;;;;;20.66;62.06;100953.44;4999207;28;45614;-67
2023/07/31 05:25:23;;;;;;;;;3.75;2.25;;;;;20.65;62.58;100953.56;4998075;28;45546;-66
2023/07/31 05:27:48;;;;;;;;;4.25;3.75;;;;;20.82;62.53;100990.34;4999306;28;45401;-67
2023/07/31 05:30:14;;;;;;;;;2.75;2.75;;;;;20.80;62.47;100987.72;5012128;28;45460;-66
2023/07/31 05:32:39;;;;;;;;;5.00;2.25;;;;;20.88;62.41;100998.91;4999227;28;45563;-67
2023/07/31 05:35:05;;;;;;;;;4.25;3.00;;;;;20.86;62.34;100989.13;4998729;28;45754;-67
2023/07/31 05:37:31;;;;;;;;;4.00;3.25;;;;;20.81;62.78;100978.59;5006937;28;45366;-67
2023/07/31 05:39:56;;;;;;;;;3.50;3.25;;;;;20.92;62.91;100991.41;4998921;28;45517;-67
2023/07/31 05:42:21;;;;;;;;;2.50;2.00;;;;;20.71;63.25;100956.72;4999184;28;45615;-66
2023/07/31 05:44:47;;;;;;;;;7.00;4.75;;;;;20.83;63.20;100973.94;4999015;28;45417;-66
2023/07/31 05:47:12;;;;;;;;;5.50;4.00;;;;;20.77;63.20;100963.53;4998850;28;45442;-66
2023/07/31 05:49:37;;;;;;;;;3.00;3.00;;;;;20.76;63.45;100960.91;4981008;28;47084;-67
2023/07/31 05:52:03;;;;;;;;;5.75;5.00;;;;;20.78;63.51;100958.97;4998780;28;45295;-67
2023/07/31 05:54:29;;;;;;;;;6.00;4.00;;;;;20.88;63.83;100970.88;4999011;28;45478;-67
2023/07/31 05:56:54;;;;;;;;;4.00;4.00;;;;;20.79;63.93;100963.41;5000226;28;45413;-66
2023/07/31 05:59:19;;;;;;;;;6.75;3.25;;;;;20.79;64.67;100955.28;5002251;28;45393;-66
2023/07/31 06:01:45;;;;;;;;;2.50;2.50;;;;;20.80;64.14;100946.13;5008404;28;45334;-67
2023/07/31 06:04:10;;;;;;;;;6.50;4.75;;;;;20.79;64.52;100948.00;5004744;28;45642;-67
2023/07/31 06:06:35;;;;;;;;;3.00;3.00;;;;;20.81;65.05;100953.31;5000853;28;45305;-67
2023/07/31 06:09:01;;;;;;;;;5.25;4.75;;;;;20.55;65.22;100918.06;5002006;28;45436;-66
2023/07/31 06:11:26;;;;;;;;;5.75;4.00;;;;;20.79;64.98;100952.56;5002136;28;45390;-66
2023/07/31 06:13:51;;;;;;;;;4.00;4.00;;;;;20.69;64.90;100927.94;5002212;28;45321;-67
2023/07/31 06:16:17;;;;;;;;;7.00;5.75;;;;;20.57;65.65;100907.97;5002195;28;45253;-67
2023/07/31 06:18:42;;;;;;;;;10.75;7.75;;;;;20.75;65.40;100943.78;5000578;28;47197;-66
2023/07/31 06:21:08;;;;;;;;;5.50;4.75;;;;;20.55;65.74;100915.34;5001862;28;45619;-66
2023/07/31 06:23:34;;;;;;;;;6.00;4.00;;;;;20.57;66.25;100907.97;5000711;28;45432;-66
2023/07/31 06:25:59;;;;;;;;;11.25;10.25;;;;;20.47;66.10;100902.34;5001989;28;45361;-67
2023/07/31 06:28:32;;;;;;;;;11.25;9.75;;;;;20.69;66.46;100917.94;5005363;28;45397;-67
2023/07/31 06:31:00;;;;;;;;;7.25;6.00;;;;;20.64;66.21;100913.84;5020436;28;45827;-66
2023/07/31 06:33:26;;;;;;;;;6.00;4.00;;;;;20.52;66.51;100911.00;5021806;28;45531;-66
2023/07/31 06:35:51;;;;;;;;;2.00;2.00;;;;;20.63;66.98;100926.56;5013202;28;45458;-66
2023/07/31 06:38:24;;;;;;;;;9.50;8.00;;;;;20.54;66.66;100919.03;5000243;28;47015;-66
2023/07/31 06:40:49;;;;;;;;;16.25;11.25;;;;;20.68;67.26;100939.75;5001901;28;45563;-66
2023/07/31 06:43:14;;;;;;;;;6.50;6.00;;;;;20.52;66.82;100923.69;5000447;28;45392;-66
2023/07/31 06:45:40;;;;;;;;;11.25;8.75;;;;;20.59;67.23;100938.56;5001560;28;45326;-67
2023/07/31 06:48:05;;;;;;;;;9.25;9.00;;;;;20.52;67.09;100929.13;4999941;28;47536;-66
2023/07/31 06:50:31;;;;;;;;;7.00;4.50;;;;;20.51;67.43;100920.13;5001452;28;45461;-66
2023/07/31 06:52:56;;;;;;;;;7.00;5.25;;;;;20.72;67.04;100944.84;5001504;28;45362;-66
2023/07/31 06:55:22;;;;;;;;;5.00;4.00;;;;;20.67;67.82;100936.19;5001566;28;45397;-66
2023/07/31 06:57:50;;;;;;;;;7.25;6.25;;;;;20.56;67.38;100911.66;4999917;28;48332;-67
2023/07/31 07:00:16;;;;;;;;;5.00;4.00;;;;;20.63;67.72;100939.22;5000149;28;45534;-66
2023/07/31 07:02:42;;;;;;;;;3.50;3.50;;;;;20.56;67.85;100925.19;5009511;28;45551;-67
2023/07/31 07:05:08;;;;;;;;;3.25;3.25;;;;;20.71;67.83;100948.56;5001373;28;45559;-66
2023/07/31 07:07:34;;;;;;;;;5.75;5.25;;;;;20.69;68.01;100950.50;5000897;28;45379;-66
2023/07/31 07:09:59;;;;;;;;;3.00;3.00;;;;;20.67;68.52;100948.91;5001320;28;45389;-67
2023/07/31 07:12:25;;;;;;;;;3.25;3.25;;;;;20.58;68.21;100926.00;5001304;28;45660;-66
2023/07/31 07:14:52;;;;;;;;;6.75;5.00;;;;;20.71;68.61;100947.69;5001286;28;45377;-66
2023/07/31 07:17:18;;;;;;;;;4.25;4.25;;;;;20.70;68.54;100935.13;4999715;28;47525;-66
2023/07/31 07:19:45;;;;;;;;;3.00;1.50;;;;;20.68;68.50;100932.50;4983455;28;45460;-66
2023/07/31 07:22:11;;;;;;;;;6.25;5.00;;;;;20.70;68.55;100916.97;4983187;28;45443;-66
2023/07/31 07:24:36;;;;;;;;;7.00;5.00;;;;;20.67;68.80;100919.91;5001244;28;45329;-66
2023/07/31 07:27:02;;;;;;;;;6.50;5.25;;;;;20.59;68.54;100899.72;4982940;28;48117;-67
2023/07/31 07:29:27;;;;;;;;;7.50;5.25;;;;;20.59;69.27;100905.16;5013408;28;45317;-67
2023/07/31 07:31:53;;;;;;;;;6.00;4.25;;;;;20.53;69.12;100893.75;5001713;28;45522;-66
2023/07/31 07:34:18;;;;;;;;;8.25;5.75;;;;;20.73;68.62;100924.00;5000989;28;45376;-66
2023/07/31 07:36:43;;;;;;;;;5.50;5.00;;;;;20.60;69.03;100899.63;5000385;28;46155;-66
2023/07/31 07:39:11;;;;;;;;;5.25;5.00;;;;;20.61;69.47;100895.91;5000920;28;45468;-66
2023/07/31 07:41:36;;;;;;;;;5.00;4.25;;;;;20.79;69.09;100923.59;5000835;28;45325;-66
2023/07/31 07:44:01;;;;;;;;;4.25;4.25;;;;;20.65;68.74;100899.31;5000630;28;45412;-66
2023/07/31 07:46:26;;;;;;;;;5.50;5.50;;;;;20.78;68.80;100920.97;5000506;28;49723;-66
2023/07/31 07:48:52;;;;;;;;;22.25;18.00;;;;;20.77;69.43;100925.53;4999141;28;45839;-66
2023/07/31 07:51:17;;;;;;;;;8.75;5.25;;;;;20.83;68.94;100926.94;5000538;28;45632;-66
2023/07/31 07:53:42;;;;;;;;;5.25;5.25;;;;;20.85;68.95;100922.28;5000553;28;45404;-66
2023/07/31 07:56:08;;;;;;;;;6.25;5.25;;;;;20.89;69.53;100927.34;4982760;28;47382;-66
2023/07/31 07:58:33;;;;;;;;;5.75;5.00;;;;;20.79;69.22;100901.03;4999282;28;45349;-66
2023/07/31 08:00:58;;;;;;;;;7.50;5.00;;;;;20.84;68.50;100899.69;4999352;28;45574;-66
2023/07/31 08:03:24;;;;;;;;;2.75;2.75;;;;;20.92;68.80;100920.84;5006967;28;46177;-67
2023/07/31 08:05:49;;;;;;;;;6.25;6.25;;;;;21.07;68.35;100932.44;5000200;28;45288;-66
2023/07/31 08:08:16;;;;;;;;;3.00;3.00;;;;;21.07;69.18;100922.44;5000514;28;45408;-66
2023/07/31 08:10:41;;;;;;;;;4.50;4.50;;;;;20.84;68.24;100872.56;4998911;28;45378;-66
2023/07/31 08:13:07;;;;;;;;;8.25;8.00;;;;;20.98;68.86;100895.09;4982599;28;45602;-66
2023/07/31 08:15:32;;;;;;;;;6.25;4.25;;;;;21.13;68.26;100898.53;5000120;28;45285;-66
2023/07/31 08:17:57;;;;;;;;;9.75;6.25;;;;;21.20;69.18;100906.13;4998901;28;45778;-66
2023/07/31 08:20:23;;;;;;;;;10.50;6.00;;;;;21.02;68.81;100869.50;4999665;28;45513;-67
2023/07/31 08:22:48;;;;;;;;;6.75;4.50;;;;;21.12;68.69;100885.94;4982286;28;45428;-66
2023/07/31 08:25:14;;;;;;;;;7.25;5.00;;;;;21.16;68.37;100895.59;4998658;28;47243;-67
2023/07/31 08:27:43;;;;;;;;;7.50;6.25;;;;;21.21;68.16;100906.97;5000025;28;45400;-66
2023/07/31 08:30:09;;;;;;;;;5.50;5.50;;;;;21.32;68.48;100909.75;5013198;28;45341;-66
2023/07/31 08:32:34;;;;;;;;;6.00;5.75;;;;;21.37;68.10;100904.00;4999871;28;45594;-66
2023/07/31 08:34:59;;;;;;;;;5.75;5.75;;;;;21.35;68.18;100895.97;4999772;28;45302;-66
2023/07/31 08:37:25;;;;;;;;;5.00;3.25;;;;;21.44;67.38;100897.09;4999715;28;45319;-66
2023/07/31 08:39:51;;;;;;;;;5.00;4.75;;;;;21.31;67.19;100878.16;4999870;28;45694;-67
2023/07/31 08:42:16;;;;;;;;;4.50;4.50;;;;;21.36;67.08;100870.50;4999994;28;45432;-66
2023/07/31 08:44:43;;;;;;;;;5.00;4.25;;;;;21.34;67.52;100867.06;4981934;28;48117;-66
2023/07/31 08:47:09;;;;;;;;;6.25;4.75;;;;;21.29;67.49;100856.53;4999641;28;45681;-66
2023/07/31 08:49:36;;;;;;;;;5.75;5.25;;;;;21.49;67.17;100877.78;4999777;28;45498;-66
2023/07/31 08:52:02;;;;;;;;;7.00;4.50;;;;;21.48;67.13;100898.63;4999517;28;45594;-66
2023/07/31 08:54:30;;;;;;;;;4.75;4.25;;;;;21.35;67.62;100870.63;4999586;28;45365;-66
2023/07/31 08:56:57;;;;;;;;;5.25;4.50;;;;;21.49;67.20;100883.22;4999782;28;45485;-66
2023/07/31 08:59:24;;;;;;;;;4.75;4.00;;;;;21.49;67.00;100873.22;4999730;28;45636;-66
2023/07/31 09:01:54;;;;;;;;;4.75;3.50;;;;;21.42;67.15;100858.34;5006304;28;45475;-66
2023/07/31 09:04:21;;;;;;;;;7.00;7.00;;;;;21.33;67.26;100845.44;5000083;28;45691;-66
2023/07/31 09:06:48;;;;;;;;;5.75;5.00;;;;;21.43;67.78;100858.22;4981664;28;46229;-66
2023/07/31 09:09:13;;;;;;;;;3.50;3.50;;;;;21.41;67.93;100870.19;4981976;28;45381;-66
2023/07/31 09:11:39;;;;;;;;;7.25;5.00;;;;;21.37;68.43;100864.13;4999524;28;45377;-66
2023/07/31 09:14:08;;;;;;;;;3.75;3.00;;;;;21.50;68.37;100903.94;4999444;28;45468;-66
2023/07/31 09:16:34;;;;;;;;;4.00;4.00;;;;;21.38;68.07;100886.69;4999498;28;45440;-66
2023/07/31 09:19:01;;;;;;;;;4.75;4.75;;;;;21.45;68.16;100888.84;4999604;28;45463;-66
2023/07/31 09:21:27;;;;;;;;;5.50;5.50;;;;;21.33;68.00;100865.31;4999208;28;45355;-66
2023/07/31 09:23:56;;;;;;;;;5.00;5.00;;;;;21.44;67.46;100884.38;5012781;28;45396;-66
2023/07/31 09:26:31;;;;;;;;;5.00;4.00;;;;;21.45;67.89;100893.38;5012980;28;45421;-66
2023/07/31 09:28:58;;;;;;;;;5.00;4.50;;;;;21.40;68.06;100874.75;4993253;28;45409;-66
2023/07/31 09:31:41;;;;;;;;;4.00;3.25;;;;;21.40;67.27;100880.19;4998045;28;45347;-66
2023/07/31 09:34:07;;;;;;;;;3.50;2.25;;;;;21.40;67.67;100876.56;4981384;28;46172;-66
2023/07/31 09:36:32;;;;;;;;;4.00;3.00;;;;;21.40;68.13;100884.72;4998820;28;45485;-66
2023/07/31 09:39:09;;;;;;;;;6.50;3.50;;;;;21.21;68.60;100836.38;4999347;28;45487;-66
2023/07/31 09:41:38;;;;;;;;;6.00;5.00;;;;;21.39;67.98;100883.00;4981249;28;45930;-66
2023/07/31 09:44:04;;;;;;;;;4.75;4.75;;;;;21.35;69.26;100868.81;4998982;28;46495;-66
2023/07/31 09:46:30;;;;;;;;;5.25;4.50;;;;;21.38;69.64;100887.56;4997653;28;45361;-66
2023/07/31 09:49:07;;;;;;;;;6.00;4.00;;;;;21.44;69.67;100878.09;4998870;28;45524;-66
2023/07/31 09:51:37;;;;;;;;;4.75;4.75;;;;;21.33;69.61;100862.59;4987884;28;45460;-66
2023/07/31 09:54:03;;;;;;;;;6.75;6.25;;;;;21.42;70.52;100864.63;5018702;28;45634;-66
2023/07/31 09:56:29;;;;;;;;;5.75;5.75;;;;;21.31;70.62;100851.00;5018794;28;45530;-66
2023/07/31 09:58:56;;;;;;;;;7.00;4.50;;;;;21.47;69.85;100880.63;5018758;28;45531;-66
2023/07/31 10:01:21;;;;;;;;;8.00;4.00;;;;;21.29;69.77;100853.81;5018753;28;45310;-66
2023/07/31 10:03:47;;;;;;;;;4.00;4.00;;;;;21.49;69.79;100889.50;5004139;28;46268;-66
2023/07/31 10:06:18;;;;;;;;;6.00;4.25;;;;;21.43;70.16;100874.53;4998599;28;45456;-66
2023/07/31 10:08:47;;;;;;;;;5.00;5.00;;;;;21.47;69.93;100853.47;4998786;28;45537;-66
2023/07/31 10:11:14;;;;;;;;;4.00;4.00;;;;;21.42;69.57;100840.19;4998936;28;45476;-66
2023/07/31 10:13:41;;;;;;;;;6.50;5.50;;;;;21.52;69.64;100840.38;4998359;28;46391;-66
2023/07/31 10:16:07;;;;;;;;;6.50;5.50;;;;;21.55;69.39;100855.56;4998752;28;45294;-66
2023/07/31 10:18:33;;;;;;;;;7.50;6.25;;;;;21.43;69.32;100839.22;4980918;28;45393;-65
2023/07/31 10:20:58;;;;;;;;;11.25;11.25;;;;;21.55;69.91;100871.84;4998477;28;45457;-65
2023/07/31 10:23:27;;;;;;;;;9.25;6.25;;;;;21.54;71.29;100862.84;4998410;28;46413;-65
2023/07/31 10:25:54;;;;;;;;;6.75;6.75;;;;;21.51;71.92;100864.94;4998576;28;45474;-65
2023/07/31 10:28:20;;;;;;;;;6.25;5.75;;;;;21.37;72.20;100827.97;4983785;28;45373;-65
2023/07/31 10:30:46;;;;;;;;;6.25;4.25;;;;;21.43;73.20;100825.66;5008754;28;45428;-65
2023/07/31 10:33:11;;;;;;;;;6.25;5.00;;;;;21.43;73.60;100822.03;4998212;28;45425;-65
2023/07/31 10:35:37;;;;;;;;;7.00;5.50;;;;;21.34;74.18;100812.75;4980489;28;45409;-65
2023/07/31 10:38:12;;;;;;;;;6.00;6.00;;;;;21.49;74.07;100839.75;4998478;28;45369;-65
2023/07/31 10:40:38;;;;;;;;;6.75;6.50;;;;;21.37;74.58;100814.38;4980765;28;45501;-65
2023/07/31 10:43:04;;;;;;;;;3.25;2.75;;;;;21.37;74.19;100811.66;4999696;28;45619;-66
2023/07/31 10:45:42;;;;;;;;;5.00;3.75;;;;;21.55;74.23;100833.84;4983683;28;45620;-66
2023/07/31 10:48:13;;;;;;;;;6.25;4.50;;;;;21.56;74.64;100849.16;5001497;28;45471;-66
2023/07/31 10:50:50;;;;;;;;;6.75;5.00;;;;;21.58;75.25;100845.31;4999972;28;45540;-68
2023/07/31 10:53:35;;;;;;;;;5.00;5.00;;;;;21.60;74.80;100835.22;5001480;28;45531;-66
2023/07/31 10:56:04;;;;;;;;;8.25;6.50;;;;;21.40;74.18;100800.53;5001462;28;45637;-66
2023/07/31 10:58:31;;;;;;;;;4.25;3.25;;;;;21.50;74.41;100819.75;5001777;28;45266;-66
2023/07/31 11:00:58;;;;;;;;;5.50;5.50;;;;;21.51;75.00;100832.34;5001392;28;45495;-66
2023/07/31 11:03:42;;;;;;;;;4.75;4.75;;;;;21.53;74.61;100838.53;5008748;28;46317;-65
2023/07/31 11:06:07;;;;;;;;;3.25;3.00;;;;;21.50;75.45;100838.75;4999898;28;45563;-66
2023/07/31 11:08:36;;;;;;;;;4.00;4.00;;;;;21.45;75.07;100839.97;5001327;28;45287;-66
2023/07/31 11:11:01;;;;;;;;;6.75;6.00;;;;;21.52;75.84;100848.53;5000047;28;45545;-66
2023/07/31 11:13:27;;;;;;;;;6.25;4.25;;;;;21.38;74.81;100822.38;5000994;28;45692;-66
2023/07/31 11:15:52;;;;;;;;;5.25;5.25;;;;;21.33;75.29;100808.28;5001388;28;45434;-66
2023/07/31 11:18:18;;;;;;;;;5.75;4.50;;;;;21.51;74.91;100824.22;5001235;28;45548;-65
2023/07/31 11:20:43;;;;;;;;;8.25;7.00;;;;;21.38;75.55;100803.38;5001145;28;45499;-65